Time;durP1;ratioP1;P1;durP2;ratioP2;P2;SDS_P1;SDS_P2;PMS_P1;PMS_P2;Temp;Humidity;BMP_temperature;BMP_pressure;BME280_temperature;BME280_humidity;BME280_pressure;Samples;Min_cycle;Max_cycle;Signal;HPM_P1;HPM_P2
2022/04/10 00:01:41;;;;;;;3.77;2.33;;;2.20;20.60;;;;;;8284394;28;20208;-64
2022/04/10 00:05:42;;;;;;;5.67;2.17;;;2.20;99.90;;;;;;8285883;28;20209;-66
2022/04/10 00:09:43;;;;;;;4.67;2.10;;;2.20;99.90;;;;;;8282137;28;20207;-67
2022/04/10 00:13:44;;;;;;;2.83;2.20;;;2.20;99.90;;;;;;8283391;28;20246;-67
2022/04/10 00:17:45;;;;;;;2.57;2.10;;;2.30;99.90;;;;;;8284013;28;20205;-64
2022/04/10 00:21:46;;;;;;;3.47;1.83;;;2.30;54.60;;;;;;8289315;28;20209;-64
2022/04/10 00:25:47;;;;;;;2.67;2.43;;;2.30;39.10;;;;;;8283237;28;20203;-65
2022/04/10 00:29:48;;;;;;;6.03;2.40;;;2.30;95.70;;;;;;8282779;28;20242;-65
2022/04/10 00:33:49;;;;;;;3.03;2.50;;;2.30;85.90;;;;;;8296973;28;20230;-65
2022/04/10 00:37:50;;;;;;;3.60;2.60;;;2.20;99.90;;;;;;8283306;28;20218;-69
2022/04/10 00:41:50;;;;;;;3.53;2.23;;;2.10;99.90;;;;;;8283554;28;20206;-64
2022/04/10 00:45:51;;;;;;;3.20;2.60;;;2.20;99.90;;;;;;8302082;28;20203;-65
2022/04/10 00:49:53;;;;;;;3.87;2.57;;;2.20;99.90;;;;;;8290804;28;20203;-66
2022/04/10 00:53:54;;;;;;;2.93;2.37;;;2.10;99.90;;;;;;8282939;28;20696;-64
2022/04/10 00:57:55;;;;;;;4.73;2.50;;;1.90;99.90;;;;;;8300950;28;20215;-65
2022/04/10 01:01:56;;;;;;;4.23;3.20;;;1.90;99.90;;;;;;8283237;28;20647;-64
2022/04/10 01:05:56;;;;;;;4.13;2.63;;;1.80;99.90;;;;;;8282128;28;20214;-63
2022/04/10 01:09:57;;;;;;;3.07;2.50;;;1.80;99.90;;;;;;8284217;28;20246;-68
2022/04/10 01:13:59;;;;;;;4.47;2.80;;;1.80;99.90;;;;;;8282832;28;20269;-64
2022/04/10 01:17:59;;;;;;;4.73;2.80;;;1.80;99.90;;;;;;8284472;28;20211;-65
2022/04/10 01:22:05;;;;;;;5.93;2.67;;;1.80;99.90;;;;;;8271703;28;20199;-66
2022/04/10 01:26:06;;;;;;;2.63;2.43;;;1.90;99.90;;;;;;8280259;28;20199;-67
2022/04/10 01:30:09;;;;;;;5.50;2.73;;;1.80;99.90;;;;;;8280511;28;20249;-69
2022/04/10 01:34:15;;;;;;;3.27;2.37;;;1.90;99.90;;;;;;8283113;28;20230;-64
2022/04/10 01:38:16;;;;;;;2.23;1.80;;;1.90;99.90;;;;;;8278376;28;20211;-67
2022/04/10 01:42:17;;;;;;;5.70;2.17;;;1.90;99.90;;;;;;8283949;28;20214;-65
2022/04/10 01:46:18;;;;;;;6.97;2.37;;;1.90;99.90;;;;;;8281640;28;20214;-69
2022/04/10 01:50:20;;;;;;;3.90;2.40;;;1.90;99.90;;;;;;8282255;28;20207;-68
2022/04/10 01:54:20;;;;;;;3.60;2.33;;;1.80;99.90;;;;;;8273539;28;20247;-65
2022/04/10 01:58:21;;;;;;;3.23;2.40;;;1.80;99.90;;;;;;8280305;28;20203;-63
2022/04/10 02:02:22;;;;;;;4.33;2.73;;;1.80;99.90;;;;;;8279938;28;20241;-64
2022/04/10 02:06:23;;;;;;;3.10;2.77;;;1.70;99.90;;;;;;8280122;28;20210;-65
2022/04/10 02:10:24;;;;;;;4.53;2.93;;;1.70;99.90;;;;;;8286990;28;20214;-65
2022/04/10 02:14:25;;;;;;;2.73;2.23;;;1.60;99.90;;;;;;8285686;28;20226;-65
2022/04/10 02:18:26;;;;;;;4.13;2.50;;;1.60;99.90;;;;;;8292660;28;20207;-66
2022/04/10 02:22:26;;;;;;;5.00;2.43;;;1.60;99.90;;;;;;8280860;28;20217;-67
2022/04/10 02:26:27;;;;;;;3.90;2.50;;;1.50;99.90;;;;;;8288346;28;20202;-66
2022/04/10 02:30:28;;;;;;;5.83;3.10;;;1.50;99.90;;;;;;8286405;28;20241;-65
2022/04/10 02:34:29;;;;;;;5.27;2.60;;;1.40;99.90;;;;;;8288484;28;20233;-65
2022/04/10 02:38:29;;;;;;;4.47;2.50;;;1.40;99.90;;;;;;8286796;28;20222;-64
2022/04/10 02:42:33;;;;;;;5.03;2.77;;;1.40;99.90;;;;;;8279141;28;20262;-67
2022/04/10 02:46:34;;;;;;;5.17;2.43;;;1.40;99.90;;;;;;8282059;28;20212;-66
2022/04/10 02:50:35;;;;;;;3.87;2.60;;;1.30;99.90;;;;;;8287951;28;20210;-64
2022/04/10 02:54:36;;;;;;;5.13;2.73;;;1.20;99.90;;;;;;8283569;28;20234;-65
2022/04/10 02:58:37;;;;;;;5.53;4.07;;;1.20;99.90;;;;;;8282225;28;20301;-68
2022/04/10 03:02:41;;;;;;;5.90;3.23;;;1.20;99.90;;;;;;8283714;28;20209;-66
2022/04/10 03:06:42;;;;;;;7.70;3.63;;;1.20;99.90;;;;;;8289159;28;20212;-64
2022/04/10 03:10:42;;;;;;;4.27;3.13;;;1.20;99.90;;;;;;8299415;28;20210;-66
2022/04/10 03:14:43;;;;;;;7.60;4.00;;;1.10;99.90;;;;;;8299197;28;20216;-65
2022/04/10 03:18:44;;;;;;;4.03;3.53;;;1.20;99.90;;;;;;8279307;28;20283;-66
2022/04/10 03:22:45;;;;;;;10.13;4.20;;;1.20;99.90;;;;;;8285651;28;20211;-66
2022/04/10 03:26:46;;;;;;;7.17;3.73;;;1.10;99.90;;;;;;8281531;28;20207;-66
2022/04/10 03:30:47;;;;;;;7.07;4.87;;;1.10;99.90;;;;;;8281827;28;20234;-66
2022/04/10 03:34:47;;;;;;;5.40;4.53;;;1.10;99.90;;;;;;8287844;28;20257;-64
2022/04/10 03:38:48;;;;;;;6.47;4.40;;;1.10;99.90;;;;;;8285103;28;20217;-68
2022/04/10 03:42:49;;;;;;;8.40;4.93;;;1.20;99.90;;;;;;8285407;28;20244;-65
2022/04/10 03:46:50;;;;;;;5.77;4.67;;;1.20;99.90;;;;;;8286040;28;20294;-65
2022/04/10 03:50:51;;;;;;;8.07;4.80;;;1.20;99.90;;;;;;8290583;28;20216;-65
2022/04/10 03:54:52;;;;;;;7.83;4.57;;;1.20;99.90;;;;;;8284732;28;20229;-67
2022/04/10 03:58:52;;;;;;;8.77;5.03;;;1.20;99.90;;;;;;8276299;28;20217;-67
2022/04/10 04:02:53;;;;;;;8.13;4.37;;;1.10;99.90;;;;;;8289644;28;20203;-68
2022/04/10 04:06:54;;;;;;;5.77;4.80;;;1.10;99.90;;;;;;8282980;28;20221;-65
2022/04/10 04:10:55;;;;;;;6.90;5.30;;;1.10;99.90;;;;;;8283319;28;20205;-67
2022/04/10 04:14:56;;;;;;;7.07;4.73;;;1.10;99.90;;;;;;8282499;28;20229;-65
2022/04/10 04:18:56;;;;;;;7.33;5.00;;;1.10;99.90;;;;;;8282483;28;20212;-64
2022/04/10 04:22:57;;;;;;;6.23;4.33;;;1.20;99.90;;;;;;8298964;28;20254;-63
2022/04/10 04:26:58;;;;;;;8.13;4.80;;;1.30;99.90;;;;;;8286408;28;20206;-68
2022/04/10 04:30:59;;;;;;;7.17;4.00;;;1.50;99.90;;;;;;8283366;28;20228;-66
2022/04/10 04:35:00;;;;;;;8.07;4.17;;;1.60;99.90;;;;;;8290660;28;20232;-64
2022/04/10 04:39:00;;;;;;;6.40;4.17;;;1.90;99.90;;;;;;8283832;28;20310;-66
2022/04/10 04:43:01;;;;;;;11.53;4.10;;;2.20;99.90;;;;;;8295487;28;20486;-66
2022/04/10 04:47:02;;;;;;;5.17;3.17;;;2.40;99.90;;;;;;8294774;28;20334;-72
2022/04/10 04:51:03;;;;;;;5.67;3.40;;;2.50;99.90;;;;;;8283762;28;20198;-65
2022/04/10 04:55:04;;;;;;;4.67;3.17;;;2.70;43.80;;;;;;8284301;28;20276;-64
2022/04/10 04:59:05;;;;;;;5.57;3.27;;;2.70;1.00;;;;;;8279982;28;20290;-66
2022/04/10 05:03:06;;;;;;;4.30;3.13;;;2.80;1.00;;;;;;8280281;28;20207;-66
2022/04/10 05:07:07;;;;;;;3.93;2.60;;;2.90;99.90;;;;;;8280593;28;20209;-66
2022/04/10 05:11:11;;;;;;;4.20;2.83;;;2.80;1.00;;;;;;8284302;28;20210;-66
2022/04/10 05:15:12;;;;;;;3.53;2.43;;;2.70;99.90;;;;;;8282871;28;20258;-67
2022/04/10 05:19:12;;;;;;;3.07;2.70;;;2.90;99.90;;;;;;8277515;28;20214;-66
2022/04/10 05:23:18;;;;;;;6.80;2.47;;;3.10;99.90;;;;;;8281792;28;20198;-65
2022/04/10 05:27:18;;;;;;;3.43;2.07;;;3.20;99.90;;;;;;8278880;28;20282;-66
2022/04/10 05:31:19;;;;;;;7.30;2.80;;;3.20;99.90;;;;;;8292376;28;20214;-65
2022/04/10 05:35:20;;;;;;;4.00;2.73;;;3.20;99.90;;;;;;8280302;28;20592;-67
2022/04/10 05:39:21;;;;;;;5.47;3.10;;;3.40;1.00;;;;;;8277675;28;20237;-65
2022/04/10 05:43:24;;;;;;;3.33;2.13;;;3.50;92.30;;;;;;8286083;28;20203;-64
2022/04/10 05:47:25;;;;;;;3.07;2.20;;;3.70;99.90;;;;;;8275522;28;20211;-66
2022/04/10 05:51:26;;;;;;;2.47;2.00;;;3.70;99.90;;;;;;8283853;28;20210;-67
2022/04/10 05:55:28;;;;;;;4.00;2.60;;;3.70;6.30;;;;;;8287856;28;20222;-71
2022/04/10 05:59:29;;;;;;;7.87;2.60;;;3.80;99.90;;;;;;8285500;28;20274;-68
2022/04/10 06:03:30;;;;;;;11.83;6.20;;;3.90;1.00;;;;;;8286985;28;20274;-70
2022/04/10 06:07:31;;;;;;;3.57;2.03;;;4.00;64.00;;;;;;8288397;28;20280;-67
2022/04/10 06:11:31;;;;;;;7.20;4.03;;;4.00;1.00;;;;;;8289517;28;20212;-67
2022/04/10 06:15:32;;;;;;;6.53;2.77;;;4.00;99.90;;;;;;8291346;28;20228;-68
2022/04/10 06:19:36;;;;;;;9.10;5.03;;;4.10;99.90;;;;;;8289115;28;20205;-68
2022/04/10 06:23:37;;;;;;;2.87;2.10;;;4.30;99.90;;;;;;8287286;28;20227;-67
2022/04/10 06:27:38;;;;;;;2.10;1.90;;;4.60;1.00;;;;;;8289940;28;20205;-70
2022/04/10 06:31:38;;;;;;;3.60;1.87;;;4.70;1.00;;;;;;8286929;28;20432;-69
2022/04/10 06:35:39;;;;;;;2.33;1.43;;;4.70;1.00;;;;;;8288764;28;20245;-67
2022/04/10 06:39:40;;;;;;;4.63;1.37;;;4.90;99.90;;;;;;8281162;28;20226;-69
2022/04/10 06:43:41;;;;;;;3.50;1.60;;;5.00;99.90;;;;;;8285304;28;20216;-71
2022/04/10 06:47:42;;;;;;;3.60;1.50;;;4.90;99.90;;;;;;8281413;28;20199;-72
2022/04/10 06:51:43;;;;;;;5.97;1.53;;;4.90;99.90;;;;;;8285477;28;20225;-67
2022/04/10 06:55:44;;;;;;;5.67;1.60;;;5.00;99.90;;;;;;8289780;28;20233;-68
2022/04/10 06:59:45;;;;;;;4.37;2.27;;;4.70;57.10;;;;;;8281687;28;20220;-69
2022/04/10 07:03:45;;;;;;;4.10;1.60;;;4.50;1.00;;;;;;8278573;28;20204;-70
2022/04/10 07:07:46;;;;;;;4.60;2.10;;;4.40;99.90;;;;;;8283519;28;20203;-69
2022/04/10 07:11:47;;;;;;;7.27;2.80;;;4.40;1.00;;;;;;8287364;28;20212;-69
2022/04/10 07:15:52;;;;;;;5.60;1.90;;;4.40;99.90;;;;;;8279709;28;20267;-70
2022/04/10 07:19:53;;;;;;;11.53;6.03;;;4.50;69.10;;;;;;8281320;28;20209;-69
2022/04/10 07:23:54;;;;;;;3.10;1.80;;;4.80;1.00;;;;;;8288107;28;20277;-68
2022/04/10 07:27:55;;;;;;;6.23;1.60;;;5.10;99.90;;;;;;8278204;28;20256;-69
2022/04/10 07:31:55;;;;;;;7.07;2.07;;;5.20;68.10;;;;;;8282781;28;20297;-68
2022/04/10 07:35:56;;;;;;;7.63;2.00;;;5.40;99.90;;;;;;8281647;28;20237;-68
2022/04/10 07:39:57;;;;;;;4.83;2.07;;;5.60;99.90;;;;;;8285961;28;20329;-70
2022/04/10 07:43:58;;;;;;;6.70;2.03;;;6.00;99.90;;;;;;8279492;28;20240;-69
2022/04/10 07:47:59;;;;;;;4.33;1.67;;;6.20;1.00;;;;;;8281545;28;20293;-70
2022/04/10 07:52:00;;;;;;;3.37;1.57;;;6.10;1.00;;;;;;8286570;28;20229;-70
2022/04/10 07:56:01;;;;;;;3.43;1.57;;;6.30;1.00;;;;;;8280194;28;20235;-68
2022/04/10 08:00:02;;;;;;;4.13;1.70;;;6.50;99.90;;;;;;8286452;28;20207;-69
2022/04/10 08:04:04;;;;;;;4.27;1.80;;;6.30;99.90;;;;;;8290032;28;20219;-70
2022/04/10 08:08:05;;;;;;;3.43;1.73;;;5.60;1.00;;;;;;8283712;28;20260;-67
2022/04/10 08:12:06;;;;;;;3.47;1.70;;;5.00;99.90;;;;;;8295739;28;20203;-69
2022/04/10 08:16:07;;;;;;;4.43;1.60;;;4.90;99.90;;;;;;8282966;28;20354;-66
2022/04/10 08:20:08;;;;;;;3.33;1.90;;;4.90;99.90;;;;;;8286248;28;20219;-67
2022/04/10 08:24:09;;;;;;;4.70;1.70;;;5.10;65.00;;;;;;8299848;28;20209;-69
2022/04/10 08:28:10;;;;;;;3.57;1.80;;;5.20;99.90;;;;;;8282294;28;20350;-68
2022/04/10 08:32:12;;;;;;;4.10;1.80;;;5.50;1.00;;;;;;8285977;28;20218;-68
2022/04/10 08:36:13;;;;;;;5.63;1.80;;;5.90;1.00;;;;;;8286352;28;20223;-71
2022/04/10 08:40:14;;;;;;;4.77;2.17;;;6.20;99.90;;;;;;8283779;28;20237;-70
2022/04/10 08:44:16;;;;;;;2.80;1.63;;;6.80;99.90;;;;;;8283076;28;20230;-67
2022/04/10 08:48:18;;;;;;;4.23;1.30;;;7.70;99.90;;;;;;8284453;28;20241;-69
2022/04/10 08:52:21;;;;;;;4.77;1.73;;;7.10;1.00;;;;;;8286761;28;20246;-69
2022/04/10 08:56:23;;;;;;;4.90;1.60;;;6.40;79.80;;;;;;8288912;28;20241;-67
2022/04/10 09:00:24;;;;;;;4.03;1.43;;;6.00;99.90;;;;;;8290574;28;20214;-68
2022/04/10 09:04:25;;;;;;;4.33;1.50;;;6.00;99.90;;;;;;8288092;28;20206;-69
2022/04/10 09:08:26;;;;;;;4.23;1.57;;;6.30;99.90;;;;;;8286880;28;20285;-69
2022/04/10 09:12:27;;;;;;;3.80;1.57;;;6.90;99.90;;;;;;8288983;28;20207;-67
2022/04/10 09:16:27;;;;;;;4.13;1.40;;;7.10;1.00;;;;;;8288165;28;20256;-68
2022/04/10 09:20:28;;;;;;;4.93;1.57;;;7.00;1.00;;;;;;8291780;28;20298;-70
2022/04/10 09:24:29;;;;;;;8.17;1.90;;;6.60;1.00;;;;;;8306043;28;20396;-68
2022/04/10 09:28:46;;;;;;;7.20;1.60;;;7.00;1.00;;;;;;8293589;28;20210;-68
2022/04/10 09:32:53;;;;;;;5.80;1.67;;;7.50;1.00;;;;;;8288933;28;20325;-70
2022/04/10 09:37:03;;;;;;;5.40;1.40;;;7.40;1.00;;;;;;8298511;28;20215;-70
2022/04/10 09:41:13;;;;;;;3.27;1.30;;;7.20;1.00;;;;;;8300516;28;20218;-71
2022/04/10 09:45:28;;;;;;;4.97;1.67;;;7.30;1.00;;;;;;8288311;28;20207;-69
2022/04/10 09:49:35;;;;;;;4.17;1.57;;;7.20;1.00;;;;;;8291134;28;20587;-67
2022/04/10 09:53:37;;;;;;;7.07;2.00;;;6.80;1.00;;;;;;8289020;28;20242;-70
2022/04/10 09:57:52;;;;;;;5.97;1.80;;;6.30;1.00;;;;;;8292998;28;20215;-69
2022/04/10 10:01:54;;;;;;;4.23;1.33;;;6.20;88.00;;;;;;8299402;28;20202;-68
2022/04/10 10:05:56;;;;;;;5.23;1.67;;;6.30;1.00;;;;;;8288575;28;20289;-68
2022/04/10 10:09:58;;;;;;;3.50;1.40;;;5.90;1.00;;;;;;8292829;28;20280;-69
2022/04/10 10:13:59;;;;;;;5.47;1.50;;;5.80;1.00;;;;;;8294441;28;20291;-67
2022/04/10 10:18:02;;;;;;;3.90;1.70;;;5.80;99.90;;;;;;8291196;28;20218;-70
2022/04/10 10:22:06;;;;;;;3.30;1.87;;;6.00;1.00;;;;;;8290659;28;20206;-69
2022/04/10 10:26:25;;;;;;;4.20;1.90;;;5.70;99.90;;;;;;8291647;28;20203;-67
2022/04/10 10:30:57;;;;;;;22.00;6.30;;;6.30;99.90;;;;;;8290798;28;20210;-67
2022/04/10 10:34:58;;;;;;;6.23;1.73;;;6.40;99.90;;;;;;8279119;28;20231;-69
2022/04/10 10:39:00;;;;;;;5.27;1.70;;;6.80;99.90;;;;;;8306072;28;20219;-69
2022/04/10 10:43:04;;;;;;;6.73;1.90;;;6.90;33.70;;;;;;8290619;28;20222;-71
2022/04/10 10:47:14;;;;;;;9.30;2.03;;;7.10;99.90;;;;;;8300095;28;20606;-70
2022/04/10 10:51:15;;;;;;;5.13;1.60;;;6.80;99.90;;;;;;8288950;28;20207;-70
2022/04/10 10:55:16;;;;;;;6.40;2.13;;;7.00;99.90;;;;;;8285628;28;20970;-69
2022/04/10 10:59:41;;;;;;;2.57;1.57;;;7.40;1.00;;;;;;8289643;28;20233;-69
2022/04/10 11:04:01;;;;;;;3.87;2.03;;;7.40;69.00;;;;;;8299028;28;20206;-71
2022/04/10 11:08:09;;;;;;;3.00;1.40;;;8.20;1.00;;;;;;8291980;28;20241;-70
2022/04/10 11:12:13;;;;;;;4.37;1.50;;;8.20;1.00;;;;;;8291854;28;20283;-69
2022/04/10 11:16:14;;;;;;;2.93;1.20;;;8.30;1.00;;;;;;8286050;28;20243;-66
2022/04/10 11:20:17;;;;;;;4.90;1.80;;;7.90;99.90;;;;;;8285303;28;20226;-68
2022/04/10 11:24:27;;;;;;;3.57;1.90;;;8.10;99.90;;;;;;8287756;28;20206;-68
2022/04/10 11:28:31;;;;;;;4.30;1.87;;;7.60;1.00;;;;;;8288060;28;20207;-68
2022/04/10 11:32:43;;;;;;;3.43;1.63;;;6.40;22.00;;;;;;8290168;28;20299;-67
2022/04/10 11:36:48;;;;;;;2.93;1.73;;;5.50;99.90;;;;;;8291444;28;20243;-69
2022/04/10 11:40:52;;;;;;;4.30;1.50;;;4.70;99.90;;;;;;8292805;28;20279;-68
2022/04/10 11:44:54;;;;;;;3.03;1.53;;;4.80;99.90;;;;;;8293803;28;20261;-68
2022/04/10 11:48:55;;;;;;;3.30;2.23;;;5.10;99.90;;;;;;8291689;28;20210;-71
2022/04/10 11:53:06;;;;;;;4.33;2.37;;;4.70;1.00;;;;;;8292247;28;20221;-66
2022/04/10 11:57:08;;;;;;;5.30;3.17;;;4.50;99.90;;;;;;8286419;28;20208;-68
2022/04/10 12:01:10;;;;;;;9.87;5.97;;;4.80;1.00;;;;;;8290320;28;20482;-71
2022/04/10 12:05:11;;;;;;;4.33;2.47;;;5.10;99.90;;;;;;8303566;28;20206;-69
2022/04/10 12:09:14;;;;;;;4.23;2.03;;;5.40;35.50;;;;;;8288370;28;20217;-72
2022/04/10 12:13:15;;;;;;;4.50;2.10;;;5.60;99.90;;;;;;8294166;28;20230;-72
2022/04/10 12:17:20;;;;;;;3.30;2.40;;;5.90;99.90;;;;;;8288777;28;20229;-71
2022/04/10 12:21:23;;;;;;;4.77;1.90;;;6.20;1.00;;;;;;8309191;28;20209;-72
2022/04/10 12:25:24;;;;;;;6.00;1.60;;;6.50;1.00;;;;;;8289466;28;20210;-68
2022/04/10 12:29:29;;;;;;;4.57;1.70;;;6.70;99.90;;;;;;8289843;28;20270;-69
2022/04/10 12:33:31;;;;;;;3.63;1.47;;;7.30;99.90;;;;;;8288315;28;20246;-67
2022/04/10 12:37:32;;;;;;;3.03;1.40;;;7.40;1.00;;;;;;8287713;28;20207;-66
2022/04/10 12:41:33;;;;;;;1.60;1.00;;;7.40;99.90;;;;;;8284377;28;20222;-70
2022/04/10 12:45:36;;;;;;;3.20;1.20;;;7.10;99.90;;;;;;8284609;28;20214;-71
2022/04/10 12:49:39;;;;;;;4.83;1.37;;;7.40;99.90;;;;;;8295379;28;20195;-69
2022/04/10 12:53:45;;;;;;;3.13;1.27;;;7.90;99.90;;;;;;8277408;28;20218;-66
2022/04/10 12:57:59;;;;;;;4.13;1.30;;;8.10;99.90;;;;;;8289735;28;20211;-71
2022/04/10 13:02:00;;;;;;;2.27;1.20;;;8.40;1.00;;;;;;8304594;28;20210;-68
2022/04/10 13:06:04;;;;;;;3.57;1.77;;;8.90;1.00;;;;;;8292335;28;20223;-71
2022/04/10 13:10:09;;;;;;;3.63;1.20;;;9.40;1.00;;;;;;8285416;28;20268;-67
2022/04/10 13:14:13;;;;;;;5.27;1.53;;;9.10;1.00;;;;;;8283550;28;20233;-67
2022/04/10 13:18:14;;;;;;;4.40;1.23;;;8.10;99.90;;;;;;8286446;28;20215;-71
2022/04/10 13:22:15;;;;;;;1.13;0.60;;;7.60;99.90;;;;;;8287421;28;20288;-72
2022/04/10 13:26:28;;;;;;;3.23;1.40;;;7.00;99.90;;;;;;8298200;28;20241;-70
2022/04/10 13:30:29;;;;;;;2.70;1.40;;;6.70;1.00;;;;;;8309491;28;20211;-71
2022/04/10 13:34:31;;;;;;;1.90;1.37;;;6.60;1.00;;;;;;8302009;28;20227;-69
2022/04/10 13:38:32;;;;;;;6.93;1.60;;;6.80;99.90;;;;;;8283222;28;20219;-68
2022/04/10 13:42:34;;;;;;;5.57;1.30;;;6.80;99.90;;;;;;8292971;28;20206;-70
2022/04/10 13:46:35;;;;;;;4.67;1.70;;;7.10;99.90;;;;;;8301076;28;20211;-69
2022/04/10 13:50:37;;;;;;;5.30;1.50;;;7.30;68.30;;;;;;8294989;28;20224;-70
2022/04/10 13:54:38;;;;;;;5.67;1.50;;;7.10;1.00;;;;;;8287698;28;20223;-65
2022/04/10 13:58:38;;;;;;;2.77;1.27;;;6.90;78.50;;;;;;8284754;28;20210;-68
2022/04/10 14:07:36;;;;;;;1.63;0.87;;;3.90;99.90;;;;;;8298176;28;20221;-71
2022/04/10 14:11:37;;;;;;;2.67;0.90;;;3.00;37.60;;;;;;8287687;28;20214;-69
2022/04/10 14:15:38;;;;;;;2.80;0.90;;;2.70;99.90;;;;;;8294414;28;20222;-73
2022/04/10 14:19:39;;;;;;;1.10;0.90;;;2.50;99.90;;;;;;8287555;28;20207;-73
2022/04/10 14:23:40;;;;;;;3.37;1.07;;;3.00;99.90;;;;;;8288826;28;20202;-71
2022/04/10 14:27:41;;;;;;;2.07;1.23;;;3.60;99.90;;;;;;8292718;28;20226;-72
2022/04/10 14:31:46;;;;;;;2.50;0.80;;;3.90;99.90;;;;;;8297755;28;20208;-72
2022/04/10 14:35:47;;;;;;;1.10;1.00;;;4.20;24.20;;;;;;8292709;28;20230;-72
2022/04/10 14:39:48;;;;;;;2.60;0.70;;;4.70;99.90;;;;;;8283431;28;20221;-65
2022/04/10 14:43:49;;;;;;;4.63;1.00;;;5.10;99.90;;;;;;8291437;28;20203;-65
2022/04/10 14:47:50;;;;;;;2.00;0.87;;;5.60;99.90;;;;;;8281586;28;20567;-66
2022/04/10 14:51:50;;;;;;;1.20;0.80;;;6.10;99.90;;;;;;8283745;28;20207;-66
2022/04/10 14:55:51;;;;;;;3.13;0.90;;;6.00;99.90;;;;;;8288195;28;20226;-64
2022/04/10 14:59:52;;;;;;;3.37;1.00;;;6.20;1.00;;;;;;8294539;28;20214;-65
2022/04/10 15:03:54;;;;;;;2.80;1.07;;;6.10;99.90;;;;;;8295775;28;20207;-63
2022/04/10 15:08:00;;;;;;;1.90;1.23;;;6.00;99.90;;;;;;8295816;28;20215;-66
2022/04/10 15:12:01;;;;;;;4.00;1.10;;;5.90;99.90;;;;;;8287297;28;20211;-65
2022/04/10 15:16:06;;;;;;;5.70;1.50;;;5.90;99.90;;;;;;8292199;28;20223;-64
2022/04/10 15:20:10;;;;;;;2.20;1.50;;;5.80;1.00;;;;;;8287494;28;20215;-66
2022/04/10 15:24:11;;;;;;;3.50;1.10;;;5.70;99.90;;;;;;8290132;28;20208;-65
2022/04/10 15:28:12;;;;;;;2.47;1.33;;;5.80;64.40;;;;;;8279943;28;20213;-65
2022/04/10 15:32:13;;;;;;;1.37;0.93;;;6.00;99.90;;;;;;8280145;28;20362;-67
2022/04/10 15:36:13;;;;;;;2.77;1.23;;;6.20;99.90;;;;;;8280252;28;20230;-64
2022/04/10 15:40:14;;;;;;;3.60;1.20;;;6.40;28.10;;;;;;8272015;28;20227;-63
2022/04/10 15:44:17;;;;;;;3.17;1.63;;;6.60;1.00;;;;;;8277934;28;20253;-64
2022/04/10 15:48:18;;;;;;;2.57;1.40;;;6.50;36.80;;;;;;8274604;28;20214;-64
2022/04/10 15:52:19;;;;;;;3.60;1.40;;;6.40;1.00;;;;;;8277912;28;20556;-63
2022/04/10 15:56:20;;;;;;;3.43;1.47;;;6.60;99.90;;;;;;8275401;28;20245;-66
2022/04/10 16:00:21;;;;;;;4.10;1.77;;;6.70;99.90;;;;;;8271626;28;20211;-64
2022/04/10 16:04:22;;;;;;;3.50;1.27;;;6.50;1.00;;;;;;8283489;28;20238;-66
2022/04/10 16:08:23;;;;;;;5.50;2.60;;;6.40;1.00;;;;;;8279766;28;20297;-64
2022/04/10 16:12:24;;;;;;;2.90;1.40;;;6.40;1.00;;;;;;8265276;28;20576;-65
2022/04/10 16:16:25;;;;;;;1.20;1.10;;;6.40;99.90;;;;;;8267582;28;20276;-64
2022/04/10 16:20:26;;;;;;;1.90;1.47;;;6.50;99.90;;;;;;8269650;28;20213;-65
2022/04/10 16:24:27;;;;;;;2.70;1.00;;;6.60;99.90;;;;;;8267627;28;20263;-68
2022/04/10 16:32:48;;;;;;;4.30;1.20;;;6.50;1.00;;;;;;8270936;28;20261;-65
2022/04/10 16:36:51;;;;;;;2.30;1.10;;;6.50;99.90;;;;;;8272745;28;20204;-65
2022/04/10 16:40:52;;;;;;;3.67;1.07;;;6.50;99.90;;;;;;8264916;28;20221;-64
2022/04/10 16:44:53;;;;;;;2.03;1.07;;;6.40;99.90;;;;;;8270991;28;20210;-65
2022/04/10 16:48:53;;;;;;;1.03;0.90;;;6.40;99.90;;;;;;8280787;28;20245;-63
2022/04/10 16:52:54;;;;;;;1.90;1.17;;;6.30;99.90;;;;;;8276703;28;20207;-67
2022/04/10 16:56:55;;;;;;;3.23;1.20;;;6.30;1.00;;;;;;8274890;28;20202;-63
2022/04/10 17:00:57;;;;;;;1.80;1.10;;;6.30;1.00;;;;;;8272865;28;20214;-65
2022/04/10 17:04:58;;;;;;;3.13;1.40;;;6.30;1.00;;;;;;8269256;28;20221;-64
2022/04/10 17:08:59;;;;;;;2.43;1.23;;;6.30;99.90;;;;;;8274462;28;20210;-64
2022/04/10 17:13:01;;;;;;;2.30;1.30;;;6.20;99.90;;;;;;8273332;28;20240;-63
2022/04/10 17:17:06;;;;;;;2.63;0.97;;;6.20;1.00;;;;;;8275445;28;20272;-65
2022/04/10 17:21:06;;;;;;;3.23;1.63;;;6.10;99.90;;;;;;8275223;28;20199;-65
2022/04/10 17:25:08;;;;;;;3.47;1.20;;;6.10;1.00;;;;;;8274890;28;20245;-64
2022/04/10 17:29:09;;;;;;;4.83;2.27;;;5.90;99.90;;;;;;8269222;28;20278;-67
2022/04/10 17:33:10;;;;;;;2.17;1.63;;;5.70;99.90;;;;;;8287666;28;20230;-62
2022/04/10 17:37:14;;;;;;;3.17;1.80;;;5.30;99.90;;;;;;8269888;28;20288;-63
2022/04/10 17:41:16;;;;;;;1.97;1.43;;;4.90;99.90;;;;;;8280218;28;20224;-63
2022/04/10 17:45:16;;;;;;;4.13;2.83;;;4.60;99.90;;;;;;8276030;28;20581;-63
2022/04/10 17:49:17;;;;;;;5.80;2.33;;;4.30;99.90;;;;;;8277797;28;20226;-63
2022/04/10 17:53:18;;;;;;;6.50;3.40;;;4.20;99.90;;;;;;8276787;28;20222;-64
2022/04/10 17:57:19;;;;;;;2.80;2.37;;;4.20;99.90;;;;;;8285517;28;20215;-62
2022/04/10 18:01:51;;;;;;;3.43;1.80;;;4.10;1.00;;;;;;8286289;28;20203;-62
2022/04/10 18:05:52;;;;;;;3.87;1.80;;;3.20;28.50;;;;;;8280064;28;20218;-62
2022/04/10 18:09:53;;;;;;;4.20;1.80;;;2.60;99.90;;;;;;8285840;28;20202;-63
2022/04/10 18:13:54;;;;;;;2.27;1.60;;;2.50;99.90;;;;;;8286124;28;20293;-64
2022/04/10 18:17:55;;;;;;;3.80;1.97;;;2.40;99.90;;;;;;8282080;28;20310;-65
2022/04/10 18:21:56;;;;;;;1.87;1.67;;;2.30;99.90;;;;;;8288705;28;20211;-63
2022/04/10 18:25:57;;;;;;;4.03;1.43;;;2.30;99.90;;;;;;8285431;28;20294;-65
2022/04/10 18:29:58;;;;;;;1.97;1.40;;;2.20;99.90;;;;;;8288678;28;20206;-65
2022/04/10 18:34:02;;;;;;;3.27;1.97;;;2.20;99.90;;;;;;8285304;28;20238;-64
2022/04/10 18:38:06;;;;;;;3.43;2.13;;;2.10;99.90;;;;;;8277207;28;20219;-62
2022/04/10 18:42:07;;;;;;;1.37;1.10;;;2.00;99.90;;;;;;8289264;28;20203;-62
2022/04/10 18:46:09;;;;;;;2.47;1.20;;;2.00;99.90;;;;;;8288425;28;20210;-62
2022/04/10 18:50:13;;;;;;;1.50;1.17;;;2.00;99.90;;;;;;8291530;28;20294;-63
2022/04/10 18:54:14;;;;;;;2.20;1.10;;;2.10;99.90;;;;;;8292912;28;20219;-64
2022/04/10 18:58:14;;;;;;;1.50;1.30;;;2.20;99.90;;;;;;8284675;28;20278;-63
2022/04/10 19:02:15;;;;;;;5.03;1.70;;;2.20;99.90;;;;;;8289097;28;20242;-63
2022/04/10 19:06:16;;;;;;;1.13;1.03;;;2.20;99.90;;;;;;8286495;28;20207;-66
2022/04/10 19:10:17;;;;;;;2.57;1.43;;;2.30;99.90;;;;;;8290296;28;20218;-63
2022/04/10 19:14:21;;;;;;;1.73;1.30;;;2.30;99.90;;;;;;8278600;28;20322;-65
2022/04/10 19:18:22;;;;;;;2.07;1.40;;;2.40;99.90;;;;;;8285883;28;20211;-63
2022/04/10 19:22:23;;;;;;;3.23;1.37;;;2.30;99.90;;;;;;8282749;28;20203;-66
2022/04/10 19:26:24;;;;;;;1.63;1.20;;;2.30;99.90;;;;;;8285045;28;20207;-62
2022/04/10 19:30:25;;;;;;;1.60;1.50;;;2.20;99.90;;;;;;8284713;28;20199;-62
2022/04/10 19:34:27;;;;;;;3.30;1.43;;;2.10;99.90;;;;;;8282590;28;20218;-63
2022/04/10 19:38:28;;;;;;;4.03;1.50;;;2.00;99.90;;;;;;8282838;28;20230;-62
2022/04/10 19:42:29;;;;;;;3.60;1.13;;;1.90;99.90;;;;;;8281159;28;20261;-63
2022/04/10 19:46:30;;;;;;;3.27;1.87;;;1.90;99.90;;;;;;8283155;28;20474;-64
2022/04/10 19:50:31;;;;;;;3.07;1.53;;;1.90;99.90;;;;;;8283778;28;20336;-62
2022/04/10 19:54:32;;;;;;;2.33;2.13;;;1.80;99.90;;;;;;8283573;28;20245;-63
2022/04/10 19:58:34;;;;;;;5.00;1.80;;;1.80;99.90;;;;;;8286973;28;20207;-62
2022/04/10 20:02:35;;;;;;;2.90;2.10;;;1.80;99.90;;;;;;8280795;28;20234;-62
2022/04/10 20:06:36;;;;;;;4.83;2.33;;;1.80;99.90;;;;;;8286692;28;20430;-65
2022/04/10 20:10:37;;;;;;;4.13;2.43;;;1.90;99.90;;;;;;8282631;28;20198;-65
2022/04/10 20:14:37;;;;;;;6.50;2.97;;;2.00;99.90;;;;;;8284005;28;20453;-64
2022/04/10 20:18:39;;;;;;;2.87;2.23;;;2.00;99.90;;;;;;8283360;28;20206;-67
2022/04/10 20:22:39;;;;;;;3.30;2.40;;;2.20;99.90;;;;;;8282559;28;20203;-65
2022/04/10 20:26:40;;;;;;;6.67;3.03;;;2.30;99.90;;;;;;8284046;28;20281;-62
2022/04/10 20:30:41;;;;;;;3.80;2.03;;;2.40;99.90;;;;;;8283236;28;20211;-63
2022/04/10 20:34:42;;;;;;;4.57;2.17;;;2.40;99.90;;;;;;8300595;28;20229;-62
2022/04/10 20:38:43;;;;;;;4.43;2.43;;;2.10;99.90;;;;;;8276136;28;20207;-63
2022/04/10 20:42:45;;;;;;;5.03;2.50;;;1.90;99.90;;;;;;8292188;28;20250;-64
2022/04/10 20:46:46;;;;;;;6.10;3.13;;;1.90;99.90;;;;;;8295074;28;20255;-63
2022/04/10 20:50:46;;;;;;;5.17;2.80;;;1.80;99.90;;;;;;8278124;28;20206;-63
2022/04/10 20:54:47;;;;;;;4.33;3.10;;;1.80;99.90;;;;;;8283710;28;20229;-63
2022/04/10 20:58:48;;;;;;;6.77;3.63;;;1.70;99.90;;;;;;8281490;28;20214;-62
2022/04/10 21:02:49;;;;;;;4.97;2.90;;;1.60;99.90;;;;;;8278429;28;20216;-63
2022/04/10 21:06:50;;;;;;;3.37;2.50;;;1.50;99.90;;;;;;8282786;28;20213;-63
2022/04/10 21:10:54;;;;;;;3.43;2.30;;;1.40;99.90;;;;;;8281397;28;20206;-63
2022/04/10 21:14:55;;;;;;;3.03;2.10;;;1.30;99.90;;;;;;8282234;28;20249;-64
2022/04/10 21:18:56;;;;;;;2.60;1.77;;;1.20;99.90;;;;;;8283432;28;20251;-63
2022/04/10 21:22:59;;;;;;;3.20;1.90;;;1.10;99.90;;;;;;8277229;28;20207;-66
2022/04/10 21:27:00;;;;;;;2.53;2.10;;;1.00;99.90;;;;;;8286399;28;20211;-65
2022/04/10 21:31:01;;;;;;;2.20;2.00;;;1.00;99.90;;;;;;8294824;28;20213;-63